Viola, Missouri
Current Conditions -  °F | °C
As of 10:15 AM on Saturday 20 Dec 2014 (Local Time) from KFWB Reporting Station
Haze Haze  
Wind Chill: 39°   Ceiling: 1700
Heat Index: 39°   Visibility: 3mi
Dew Point: 39°   Wind: 0mph
Humidity: 100%   Direction: NA
Pressure: 30.24"   Gusts: NA
Location:  36.6422°N, 93.633°W
Report Text: KFWB 201615Z AUTO 00000KT 3SM BR FEW004 OVC017 04/04 A3024 RMK AO2
Loading
Personal Weather Stations






























Interactive Weather Map New forecast layout! Learn more

10-Day Weather Forecast

Advertisements
Track Severe Weather on mobile